createdAt,value
2022-11-20T00:01:17.706Z,-2.40
2022-11-20T00:03:45.951Z,-2.40
2022-11-20T00:06:16.552Z,-2.40
2022-11-20T00:08:46.803Z,-2.40
2022-11-20T00:11:16.885Z,-2.40
2022-11-20T00:13:45.201Z,-2.40
2022-11-20T00:16:15.606Z,-2.50
2022-11-20T00:18:44.782Z,-2.50
2022-11-20T00:21:14.659Z,-2.50
2022-11-20T00:23:43.162Z,-2.50
2022-11-20T00:26:14.775Z,-2.50
2022-11-20T00:28:43.840Z,-2.50
2022-11-20T00:31:13.649Z,-2.50
2022-11-20T00:33:42.032Z,-2.60
2022-11-20T00:36:11.599Z,-2.60
2022-11-20T00:38:39.877Z,-2.60
2022-11-20T00:41:09.627Z,-2.60
2022-11-20T00:43:39.518Z,-2.60
2022-11-20T00:46:10.661Z,-2.60
2022-11-20T00:48:38.739Z,-2.60
2022-11-20T00:51:07.008Z,-2.70
2022-11-20T00:53:35.098Z,-2.70
2022-11-20T00:56:05.224Z,-2.70
2022-11-20T00:58:35.578Z,-2.70
2022-11-20T01:01:07.428Z,-2.70
2022-11-20T01:03:35.935Z,-2.70
2022-11-20T01:06:05.136Z,-2.80
2022-11-20T01:08:36.078Z,-2.80
2022-11-20T01:11:06.011Z,-2.80
2022-11-20T01:13:39.982Z,-2.80
2022-11-20T01:16:11.509Z,-2.80
2022-11-20T01:18:41.293Z,-2.80
2022-11-20T01:21:11.320Z,-2.80
2022-11-20T01:23:41.444Z,-2.80
2022-11-20T01:26:11.563Z,-2.80
2022-11-20T01:28:40.010Z,-2.90
2022-11-20T01:31:16.051Z,-2.90
2022-11-20T01:33:45.118Z,-2.90
2022-11-20T01:36:14.072Z,-2.90
2022-11-20T01:38:42.140Z,-2.90
2022-11-20T01:41:11.331Z,-2.90
2022-11-20T01:43:38.327Z,-2.90
2022-11-20T01:46:16.992Z,-2.90
2022-11-20T01:48:52.021Z,-3.00
2022-11-20T01:51:26.554Z,-2.90
2022-11-20T01:53:56.487Z,-3.00
2022-11-20T01:56:25.114Z,-3.00
2022-11-20T01:58:56.213Z,-3.00
2022-11-20T02:01:25.794Z,-3.00
2022-11-20T02:03:54.787Z,-3.00
2022-11-20T02:06:26.270Z,-3.10
2022-11-20T02:08:55.119Z,-3.10
2022-11-20T02:11:23.778Z,-3.10
2022-11-20T02:13:51.459Z,-3.10
2022-11-20T02:16:24.695Z,-3.10
2022-11-20T02:18:56.091Z,-3.10
2022-11-20T02:21:30.557Z,-3.20
2022-11-20T02:24:09.562Z,-3.10
2022-11-20T02:26:47.884Z,-3.20
2022-11-20T02:29:20.327Z,-3.20
2022-11-20T02:31:49.175Z,-3.20
2022-11-20T02:34:17.175Z,-3.20
2022-11-20T02:36:48.799Z,-3.30
2022-11-20T02:39:18.959Z,-3.30
2022-11-20T02:41:47.221Z,-3.30
2022-11-20T02:44:15.261Z,-3.30
2022-11-20T02:46:43.281Z,-3.30
2022-11-20T02:49:11.309Z,-3.30
2022-11-20T02:51:39.307Z,-3.40
2022-11-20T02:54:07.299Z,-3.40
2022-11-20T02:56:36.704Z,-3.40
2022-11-20T02:59:05.505Z,-3.40
2022-11-20T03:01:33.595Z,-3.40
2022-11-20T03:04:02.018Z,-3.40
2022-11-20T03:06:30.116Z,-3.40
2022-11-20T03:08:58.106Z,-3.40
2022-11-20T03:11:26.106Z,-3.40
2022-11-20T03:13:55.548Z,-3.40
2022-11-20T03:16:24.829Z,-3.40
2022-11-20T03:18:55.324Z,-3.50
2022-11-20T03:21:23.356Z,-3.50
2022-11-20T03:23:51.368Z,-3.50
2022-11-20T03:26:20.825Z,-3.50
2022-11-20T03:28:50.292Z,-3.50
2022-11-20T03:31:22.568Z,-3.50
2022-11-20T03:33:51.236Z,-3.50
2022-11-20T03:36:21.503Z,-3.60
2022-11-20T03:38:50.287Z,-3.60
2022-11-20T03:41:21.132Z,-3.60
2022-11-20T03:43:50.249Z,-3.60
2022-11-20T03:46:19.914Z,-3.60
2022-11-20T03:48:51.594Z,-3.60
2022-11-20T03:51:22.174Z,-3.70
2022-11-20T03:53:52.607Z,-3.70
2022-11-20T03:56:22.711Z,-3.70
2022-11-20T03:58:50.870Z,-3.70
2022-11-20T04:01:22.410Z,-3.70
2022-11-20T04:03:51.067Z,-3.70
2022-11-20T04:06:20.984Z,-3.70
2022-11-20T04:08:53.585Z,-3.80
2022-11-20T04:11:23.109Z,-3.80
2022-11-20T04:13:52.968Z,-3.90
2022-11-20T04:16:22.769Z,-3.90
2022-11-20T04:18:54.907Z,-3.90
2022-11-20T04:21:23.628Z,-3.90
2022-11-20T04:23:51.827Z,-3.90
2022-11-20T04:26:19.871Z,-3.90
2022-11-20T04:28:48.139Z,-3.90
2022-11-20T04:31:17.897Z,-3.90
2022-11-20T04:33:47.562Z,-3.90
2022-11-20T04:36:17.739Z,-3.90
2022-11-20T04:38:46.273Z,-3.90
2022-11-20T04:41:18.178Z,-3.90
2022-11-20T04:43:50.022Z,-3.90
2022-11-20T04:46:18.633Z,-3.90
2022-11-20T04:48:49.146Z,-3.90
2022-11-20T04:51:17.329Z,-3.90
2022-11-20T04:53:45.597Z,-3.90
2022-11-20T04:56:14.589Z,-3.90
2022-11-20T04:58:42.860Z,-3.90
2022-11-20T05:01:13.582Z,-3.90
2022-11-20T05:03:42.682Z,-3.90
2022-11-20T05:06:13.518Z,-3.90
2022-11-20T05:08:41.582Z,-4.00
2022-11-20T05:11:11.337Z,-4.00
2022-11-20T05:13:40.275Z,-3.90
2022-11-20T05:16:10.085Z,-4.00
2022-11-20T05:18:38.924Z,-4.00
2022-11-20T05:21:07.880Z,-4.00
2022-11-20T05:23:37.771Z,-4.00
2022-11-20T05:26:06.963Z,-4.00
2022-11-20T05:28:38.016Z,-4.00
2022-11-20T05:31:07.783Z,-4.00
2022-11-20T05:33:36.324Z,-4.00
2022-11-20T05:36:05.234Z,-4.00
2022-11-20T05:38:33.305Z,-4.00
2022-11-20T05:41:13.206Z,-4.00
2022-11-20T05:43:42.975Z,-4.00
2022-11-20T05:46:12.761Z,-4.00
2022-11-20T05:48:42.189Z,-4.00
2022-11-20T05:51:12.599Z,-4.00
2022-11-20T05:53:45.256Z,-4.00
2022-11-20T05:56:20.013Z,-4.00
2022-11-20T05:58:49.227Z,-4.00
2022-11-20T06:01:19.465Z,-4.00
2022-11-20T06:03:48.587Z,-3.90
2022-11-20T06:06:17.612Z,-3.90
2022-11-20T06:08:45.900Z,-3.90
2022-11-20T06:11:15.663Z,-3.90
2022-11-20T06:13:45.649Z,-3.90
2022-11-20T06:16:15.288Z,-3.90
2022-11-20T06:18:43.298Z,-3.90
2022-11-20T06:21:13.482Z,-3.80
2022-11-20T06:23:42.458Z,-3.80
2022-11-20T06:26:12.763Z,-3.80
2022-11-20T06:28:40.996Z,-3.80
2022-11-20T06:31:14.350Z,-3.80
2022-11-20T06:33:42.516Z,-3.80
2022-11-20T06:36:12.636Z,-3.80
2022-11-20T06:38:41.357Z,-3.80
2022-11-20T06:41:12.356Z,-3.70
2022-11-20T06:43:40.340Z,-3.70
2022-11-20T06:46:11.015Z,-3.70
2022-11-20T06:48:39.144Z,-3.70
2022-11-20T06:51:08.768Z,-3.70
2022-11-20T06:53:37.804Z,-3.70
2022-11-20T06:56:06.490Z,-3.70
2022-11-20T06:58:36.841Z,-3.60
2022-11-20T07:01:06.858Z,-3.60
2022-11-20T07:03:36.315Z,-3.60
2022-11-20T07:06:04.694Z,-3.60
2022-11-20T07:08:33.323Z,-3.50
2022-11-20T07:11:02.315Z,-3.50
2022-11-20T07:13:31.136Z,-3.50
2022-11-20T07:16:02.212Z,-3.40
2022-11-20T07:18:30.511Z,-3.40
2022-11-20T07:21:02.610Z,-3.30
2022-11-20T07:23:30.721Z,-3.20
2022-11-20T07:25:58.819Z,-3.10
2022-11-20T07:28:27.171Z,-2.70
2022-11-20T07:30:55.808Z,-2.00
2022-11-20T07:33:24.171Z,-1.40
2022-11-20T07:35:52.169Z,-0.90
2022-11-20T07:38:21.685Z,-0.40
2022-11-20T07:40:52.538Z,-0.10
2022-11-20T07:43:20.567Z,0.20
2022-11-20T07:45:48.676Z,0.50
2022-11-20T07:48:18.009Z,0.70
2022-11-20T07:50:46.645Z,0.80
2022-11-20T07:53:14.924Z,1.10
2022-11-20T07:55:44.340Z,1.30
2022-11-20T07:58:12.354Z,1.20
2022-11-20T08:00:40.403Z,0.80
2022-11-20T08:03:08.888Z,0.30
2022-11-20T08:05:37.264Z,-0.10
2022-11-20T08:08:05.909Z,-0.30
2022-11-20T08:10:33.907Z,-0.50
2022-11-20T08:13:20.644Z,-0.60
2022-11-20T08:15:52.355Z,-0.70
2022-11-20T08:18:35.655Z,-0.60
2022-11-20T08:21:05.724Z,-0.60
2022-11-20T08:23:33.801Z,-0.70
2022-11-20T08:26:01.806Z,-0.80
2022-11-20T08:28:31.300Z,-0.90
2022-11-20T08:31:01.013Z,-0.90
2022-11-20T08:33:29.282Z,-1.10
2022-11-20T08:36:01.324Z,-1.10
2022-11-20T08:38:29.406Z,-1.20
2022-11-20T08:41:16.721Z,-1.10
2022-11-20T08:43:46.135Z,-1.10
2022-11-20T08:46:14.545Z,-1.10
2022-11-20T08:48:42.712Z,-1.10
2022-11-20T08:51:11.433Z,-1.00
2022-11-20T08:53:39.764Z,-0.80
2022-11-20T08:56:08.300Z,-0.80
2022-11-20T08:59:02.043Z,-0.70
2022-11-20T09:01:27.364Z,-0.50
2022-11-20T09:03:57.379Z,-0.30
2022-11-20T09:06:25.456Z,-0.20
2022-11-20T09:08:54.618Z,0.20
2022-11-20T09:11:22.833Z,0.70
2022-11-20T09:13:51.248Z,1.30
2022-11-20T09:16:19.367Z,1.60
2022-11-20T09:18:54.054Z,1.80
2022-11-20T09:21:35.545Z,1.70
2022-11-20T09:24:03.816Z,1.40
2022-11-20T09:26:31.810Z,1.20
2022-11-20T09:28:59.798Z,1.10
2022-11-20T09:31:28.035Z,0.90
2022-11-20T09:33:57.668Z,0.80
2022-11-20T09:36:25.685Z,0.80
2022-11-20T09:38:54.811Z,0.70
2022-11-20T09:41:41.988Z,0.70
2022-11-20T09:44:19.762Z,0.60
2022-11-20T09:46:55.551Z,0.60
2022-11-20T09:49:34.068Z,0.60
2022-11-20T09:52:12.643Z,0.50
2022-11-20T09:54:42.670Z,0.60
2022-11-20T09:57:16.598Z,0.50
2022-11-20T09:59:47.365Z,0.60
2022-11-20T10:02:28.010Z,0.60
2022-11-20T10:05:01.915Z,0.60
2022-11-20T10:07:36.021Z,0.60
2022-11-20T10:10:04.195Z,0.60
2022-11-20T10:12:42.745Z,0.70
2022-11-20T10:15:24.709Z,0.70
2022-11-20T10:18:16.087Z,0.70
2022-11-20T10:20:52.962Z,0.70
2022-11-20T10:23:35.888Z,0.70
2022-11-20T10:26:05.605Z,0.70
2022-11-20T10:28:55.462Z,0.70
2022-11-20T10:31:33.155Z,0.70
2022-11-20T10:34:12.197Z,0.60
2022-11-20T10:36:46.300Z,0.50
2022-11-20T10:39:24.885Z,0.50
2022-11-20T10:41:54.649Z,0.60
2022-11-20T10:44:38.520Z,0.60
2022-11-20T10:47:07.924Z,0.60
2022-11-20T10:49:38.974Z,0.70
2022-11-20T10:52:15.246Z,0.80
2022-11-20T10:54:51.042Z,0.80
2022-11-20T10:57:29.882Z,0.90
2022-11-20T11:00:03.992Z,0.90
2022-11-20T11:02:37.176Z,0.90
2022-11-20T11:05:17.853Z,0.90
2022-11-20T11:07:49.887Z,1.00
2022-11-20T11:10:25.747Z,1.00
2022-11-20T11:12:53.866Z,1.00
2022-11-20T11:15:30.162Z,1.10
2022-11-20T11:18:01.654Z,1.00
2022-11-20T11:20:29.679Z,1.00
2022-11-20T11:23:03.013Z,1.00
2022-11-20T11:25:34.583Z,1.00
2022-11-20T11:28:04.353Z,1.00
2022-11-20T11:30:43.332Z,1.10
2022-11-20T11:33:13.529Z,1.10
2022-11-20T11:35:51.024Z,1.20
2022-11-20T11:38:25.155Z,1.30
2022-11-20T11:40:57.326Z,1.30
2022-11-20T11:43:46.415Z,1.30
2022-11-20T11:46:29.827Z,1.20
2022-11-20T11:49:00.152Z,1.20
2022-11-20T11:51:34.936Z,1.30
2022-11-20T11:54:15.745Z,1.30
2022-11-20T11:56:44.823Z,1.30
2022-11-20T11:59:18.420Z,1.30
2022-11-20T12:01:52.966Z,1.40
2022-11-20T12:04:31.450Z,1.40
2022-11-20T12:07:18.301Z,1.40
2022-11-20T12:09:56.578Z,1.50
2022-11-20T12:12:31.263Z,1.40
2022-11-20T12:15:02.282Z,1.40
2022-11-20T12:17:30.387Z,1.40
2022-11-20T12:19:58.934Z,1.50
2022-11-20T12:22:38.463Z,1.50
2022-11-20T12:25:13.400Z,1.40
2022-11-20T12:27:56.846Z,1.40
2022-11-20T12:30:25.643Z,1.50
2022-11-20T12:33:20.546Z,1.40
2022-11-20T12:36:05.432Z,1.40
2022-11-20T12:38:59.247Z,1.40
2022-11-20T12:42:03.225Z,1.40
2022-11-20T12:45:12.154Z,1.50
2022-11-20T12:47:53.898Z,1.50
2022-11-20T12:50:30.589Z,1.40
2022-11-20T12:53:07.060Z,1.40
2022-11-20T12:55:44.067Z,1.40
2022-11-20T12:58:22.832Z,1.40
2022-11-20T13:00:58.499Z,1.40
2022-11-20T13:03:49.736Z,1.40
2022-11-20T13:06:19.219Z,1.40
2022-11-20T13:08:52.915Z,1.30
2022-11-20T13:11:27.779Z,1.30
2022-11-20T13:14:26.019Z,1.30
2022-11-20T13:17:05.903Z,1.40
2022-11-20T13:19:35.001Z,1.40
2022-11-20T13:22:03.212Z,1.30
2022-11-20T13:24:32.826Z,1.30
2022-11-20T13:27:06.804Z,1.30
2022-11-20T13:29:37.763Z,1.30
2022-11-20T13:32:15.943Z,1.20
2022-11-20T13:34:54.988Z,1.10
2022-11-20T13:37:30.066Z,1.10
2022-11-20T13:40:13.729Z,1.10
2022-11-20T13:42:46.235Z,1.00
2022-11-20T13:45:25.291Z,1.10
2022-11-20T13:47:54.817Z,1.10
2022-11-20T13:50:34.684Z,1.10
2022-11-20T13:53:08.915Z,1.00
2022-11-20T13:55:44.809Z,1.10
2022-11-20T13:58:32.780Z,1.10
2022-11-20T14:01:11.833Z,1.10
2022-11-20T14:06:31.020Z,1.20
2022-11-20T14:08:59.529Z,1.10
2022-11-20T14:11:29.422Z,1.20
2022-11-20T14:14:03.869Z,1.10
2022-11-20T14:16:35.668Z,1.10
2022-11-20T14:19:29.222Z,1.20
2022-11-20T14:22:10.520Z,1.10
2022-11-20T14:24:39.129Z,1.10
2022-11-20T14:27:12.748Z,1.10
2022-11-20T14:29:41.843Z,1.10
2022-11-20T14:32:12.756Z,1.10
2022-11-20T14:34:43.743Z,1.00
2022-11-20T14:37:17.090Z,1.00
2022-11-20T14:39:52.674Z,0.90
2022-11-20T14:42:22.904Z,0.90
2022-11-20T14:44:52.465Z,0.90
2022-11-20T14:47:24.623Z,0.90
2022-11-20T14:49:54.082Z,0.90
2022-11-20T14:52:26.620Z,0.80
2022-11-20T14:54:55.940Z,0.70
2022-11-20T14:57:27.496Z,0.70
2022-11-20T15:00:10.824Z,0.60
2022-11-20T15:02:45.206Z,0.60
2022-11-20T15:05:13.692Z,0.60
2022-11-20T15:07:46.658Z,0.60
2022-11-20T15:10:22.394Z,0.50
2022-11-20T15:12:52.369Z,0.50
2022-11-20T15:15:25.392Z,0.50
2022-11-20T15:17:55.358Z,0.40
2022-11-20T15:20:27.876Z,0.40
2022-11-20T15:22:55.964Z,0.40
2022-11-20T15:25:25.455Z,0.30
2022-11-20T15:27:56.687Z,0.30
2022-11-20T15:30:25.327Z,0.30
2022-11-20T15:32:54.869Z,0.30
2022-11-20T15:35:22.894Z,0.30
2022-11-20T15:37:50.928Z,0.20
2022-11-20T15:40:18.946Z,0.20
2022-11-20T15:43:00.839Z,0.10
2022-11-20T15:45:31.788Z,0.10
2022-11-20T15:48:04.331Z,0.00
2022-11-20T15:50:39.032Z,0.00
2022-11-20T15:53:07.501Z,0.00
2022-11-20T15:55:35.727Z,0.10
2022-11-20T15:58:03.808Z,0.00
2022-11-20T16:00:31.843Z,0.00
2022-11-20T16:03:00.883Z,0.00
2022-11-20T16:05:32.130Z,0.00
2022-11-20T16:08:00.691Z,0.00
2022-11-20T16:10:28.669Z,0.00
2022-11-20T16:13:14.268Z,0.00
2022-11-20T16:15:48.190Z,0.00
2022-11-20T16:18:21.435Z,0.00
2022-11-20T16:20:52.883Z,-0.10
2022-11-20T16:23:21.975Z,-0.10
2022-11-20T16:25:52.704Z,-0.10
2022-11-20T16:28:21.274Z,-0.10
2022-11-20T16:30:49.454Z,0.00
2022-11-20T16:33:19.096Z,0.00
2022-11-20T16:35:47.202Z,0.00
2022-11-20T16:38:19.235Z,0.00
2022-11-20T16:40:47.395Z,0.00
2022-11-20T16:43:16.285Z,0.10
2022-11-20T16:45:45.893Z,0.10
2022-11-20T16:48:17.947Z,0.10
2022-11-20T16:50:50.723Z,0.10
2022-11-20T16:53:21.246Z,0.10
2022-11-20T16:55:49.559Z,0.10
2022-11-20T16:58:18.261Z,0.10
2022-11-20T17:00:51.505Z,0.20
2022-11-20T17:03:21.975Z,0.20
2022-11-20T17:05:50.045Z,0.20
2022-11-20T17:08:19.502Z,0.20
2022-11-20T17:10:47.539Z,0.10
2022-11-20T17:13:15.569Z,0.10
2022-11-20T17:15:44.020Z,0.10
2022-11-20T17:18:12.127Z,0.10
2022-11-20T17:20:40.192Z,0.10
2022-11-20T17:23:08.778Z,0.10
2022-11-20T17:25:38.306Z,0.20
2022-11-20T17:28:06.641Z,0.20
2022-11-20T17:30:34.673Z,0.20
2022-11-20T17:33:02.683Z,0.20
2022-11-20T17:35:30.766Z,0.20
2022-11-20T17:37:59.048Z,0.20
2022-11-20T17:40:27.782Z,0.20
2022-11-20T17:42:57.492Z,0.10
2022-11-20T17:45:26.224Z,0.10
2022-11-20T17:47:54.307Z,0.10
2022-11-20T17:50:22.395Z,0.00
2022-11-20T17:52:50.410Z,0.00
2022-11-20T17:55:18.546Z,0.00
2022-11-20T17:57:56.688Z,0.00
2022-11-20T18:00:27.058Z,0.00
2022-11-20T18:02:55.272Z,0.00
2022-11-20T18:05:23.553Z,0.10
2022-11-20T18:07:54.550Z,0.10
2022-11-20T18:10:25.792Z,0.10
2022-11-20T18:12:54.609Z,0.10
2022-11-20T18:15:22.662Z,0.10
2022-11-20T18:17:52.018Z,0.10
2022-11-20T18:20:29.446Z,0.10
2022-11-20T18:23:00.170Z,0.10
2022-11-20T18:25:28.272Z,0.10
2022-11-20T18:27:56.405Z,0.10
2022-11-20T18:30:24.603Z,0.10
2022-11-20T18:32:53.999Z,0.10
2022-11-20T18:35:21.988Z,0.10
2022-11-20T18:37:50.029Z,0.10
2022-11-20T18:40:18.165Z,0.10
2022-11-20T18:43:03.859Z,0.10
2022-11-20T18:45:34.463Z,0.10
2022-11-20T18:48:04.025Z,0.10
2022-11-20T18:50:32.337Z,0.10
2022-11-20T18:53:00.963Z,0.10
2022-11-20T18:55:31.896Z,0.10
2022-11-20T18:57:59.948Z,0.10
2022-11-20T19:00:27.960Z,0.10
2022-11-20T19:02:56.221Z,0.10
2022-11-20T19:05:25.619Z,0.00
2022-11-20T19:07:54.726Z,0.00
2022-11-20T19:10:24.254Z,0.00
2022-11-20T19:12:52.431Z,-0.10
2022-11-20T19:15:20.722Z,-0.10
2022-11-20T19:17:48.871Z,-0.10
2022-11-20T19:20:17.038Z,-0.10
2022-11-20T19:22:46.555Z,-0.10
2022-11-20T19:25:21.376Z,-0.10
2022-11-20T19:27:49.452Z,-0.10
2022-11-20T19:30:17.880Z,-0.20
2022-11-20T19:32:46.160Z,-0.20
2022-11-20T19:35:14.420Z,-0.20
2022-11-20T19:37:44.344Z,-0.20
2022-11-20T19:40:14.006Z,-0.30
2022-11-20T19:42:42.175Z,-0.30
2022-11-20T19:45:10.916Z,-0.30
2022-11-20T19:50:29.544Z,-0.40
2022-11-20T19:52:59.070Z,-0.40
2022-11-20T19:55:31.909Z,-0.40
2022-11-20T19:58:00.056Z,-0.50
2022-11-20T20:00:32.724Z,-0.50
2022-11-20T20:03:04.122Z,-0.50
2022-11-20T20:05:36.053Z,-0.60
2022-11-20T20:08:04.213Z,-0.60
2022-11-20T20:10:33.660Z,-0.60
2022-11-20T20:13:05.391Z,-0.60
2022-11-20T20:15:36.496Z,-0.60
2022-11-20T20:18:04.647Z,-0.60
2022-11-20T20:20:34.639Z,-0.60
2022-11-20T20:23:07.022Z,-0.70
2022-11-20T20:25:38.641Z,-0.70
2022-11-20T20:28:06.808Z,-0.60
2022-11-20T20:30:39.745Z,-0.60
2022-11-20T20:33:07.988Z,-0.60
2022-11-20T20:35:36.042Z,-0.60
2022-11-20T20:38:04.052Z,-0.60
2022-11-20T20:40:32.119Z,-0.60
2022-11-20T20:43:01.607Z,-0.60
2022-11-20T20:45:29.674Z,-0.60
2022-11-20T20:47:57.753Z,-0.60
2022-11-20T20:50:26.112Z,-0.60
2022-11-20T20:52:54.690Z,-0.60
2022-11-20T20:55:22.709Z,-0.60
2022-11-20T20:57:50.729Z,-0.60
2022-11-20T21:00:20.543Z,-0.70
2022-11-20T21:02:48.792Z,-0.80
2022-11-20T21:05:17.008Z,-0.90
2022-11-20T21:07:58.979Z,-1.00
2022-11-20T21:10:27.075Z,-0.90
2022-11-20T21:12:55.113Z,-0.90
2022-11-20T21:15:24.472Z,-0.80
2022-11-20T21:17:52.492Z,-0.80
2022-11-20T21:20:39.577Z,-0.70
2022-11-20T21:23:12.177Z,-0.70
2022-11-20T21:25:40.799Z,-0.60
2022-11-20T21:28:12.018Z,-0.60
2022-11-20T21:30:43.687Z,-0.50
2022-11-20T21:33:11.678Z,-0.50
2022-11-20T21:35:39.721Z,-0.50
2022-11-20T21:38:07.746Z,-0.50
2022-11-20T21:40:35.757Z,-0.50
2022-11-20T21:43:03.725Z,-0.60
2022-11-20T21:45:31.747Z,-0.60
2022-11-20T21:48:01.381Z,-0.70
2022-11-20T21:50:29.961Z,-0.70
2022-11-20T21:52:58.222Z,-0.60
2022-11-20T21:55:26.213Z,-0.60
2022-11-20T21:57:54.185Z,-0.70
2022-11-20T22:00:22.257Z,-0.60
2022-11-20T22:02:50.401Z,-0.60
2022-11-20T22:05:22.322Z,-0.60
2022-11-20T22:07:50.367Z,-0.60
2022-11-20T22:10:18.922Z,-0.60
2022-11-20T22:12:46.993Z,-0.60
2022-11-20T22:15:14.139Z,-0.50
2022-11-20T22:17:59.703Z,-0.40
2022-11-20T22:20:29.050Z,-0.40
2022-11-20T22:22:57.024Z,-0.40
2022-11-20T22:25:25.008Z,-0.30
2022-11-20T22:27:53.007Z,-0.30
2022-11-20T22:30:22.058Z,-0.30
2022-11-20T22:32:50.875Z,-0.20
2022-11-20T22:35:19.080Z,-0.20
2022-11-20T22:37:49.976Z,-0.20
2022-11-20T22:40:18.109Z,-0.20
2022-11-20T22:42:46.443Z,-0.20
2022-11-20T22:45:14.676Z,-0.20
2022-11-20T22:47:42.659Z,-0.20
2022-11-20T22:50:11.020Z,-0.10
2022-11-20T22:52:38.986Z,-0.10
2022-11-20T22:55:13.519Z,-0.10
2022-11-20T22:57:43.987Z,-0.10
2022-11-20T23:00:13.304Z,-0.10
2022-11-20T23:02:45.018Z,-0.10
2022-11-20T23:05:13.027Z,-0.10
2022-11-20T23:07:41.388Z,-0.10
2022-11-20T23:10:11.416Z,0.00
2022-11-20T23:12:41.713Z,0.00
2022-11-20T23:15:11.016Z,0.00
2022-11-20T23:17:39.008Z,0.00
2022-11-20T23:20:08.289Z,0.10
2022-11-20T23:22:37.511Z,0.10
2022-11-20T23:25:07.409Z,0.10
2022-11-20T23:27:36.789Z,0.10
2022-11-20T23:30:05.576Z,0.10
2022-11-20T23:32:33.556Z,0.10
2022-11-20T23:35:01.504Z,0.10
2022-11-20T23:37:29.520Z,0.10
2022-11-20T23:39:57.480Z,0.20
2022-11-20T23:42:25.472Z,0.10
2022-11-20T23:44:54.795Z,0.20
2022-11-20T23:47:22.827Z,0.20
2022-11-20T23:49:50.808Z,0.20
2022-11-20T23:52:18.803Z,0.20
2022-11-20T23:54:46.815Z,0.20
2022-11-20T23:57:14.805Z,0.20
2022-11-20T23:59:42.782Z,0.20
